Time;durP1;ratioP1;P1;durP2;ratioP2;P2;SDS_P1;SDS_P2;PMS_P1;PMS_P2;Temp;Humidity;BMP_temperature;BMP_pressure;BME280_temperature;BME280_humidity;BME280_pressure;Samples;Min_cycle;Max_cycle;Signal;HPM_P1;HPM_P2
2023/12/15 00:01:41;;;;;;;17.60;8.93;;;;;1.30;94908.00;;;;7401227;19;20453;-75
2023/12/15 00:04:17;;;;;;;15.83;9.20;;;;;1.20;94915.00;;;;7401649;19;20125;-75
2023/12/15 00:06:53;;;;;;;15.67;9.17;;;;;1.40;94915.00;;;;7401364;19;20133;-76
2023/12/15 00:09:23;;;;;;;17.63;10.13;;;;;1.50;94917.00;;;;7402014;19;20136;-79
2023/12/15 00:11:58;;;;;;;20.73;10.13;;;;;1.30;94913.00;;;;7401479;19;20137;-77
2023/12/15 00:14:26;;;;;;;21.23;10.70;;;;;1.40;94919.00;;;;7398810;19;20648;-78
2023/12/15 00:17:00;;;;;;;17.50;10.37;;;;;1.20;94931.00;;;;7401704;19;20588;-78
2023/12/15 00:19:35;;;;;;;19.30;10.77;;;;;1.20;94921.00;;;;7401916;19;20147;-81
2023/12/15 00:22:09;;;;;;;17.47;9.70;;;;;1.50;94929.00;;;;7397431;19;20145;-78
2023/12/15 00:24:38;;;;;;;16.27;9.70;;;;;1.50;94937.00;;;;7403630;19;20481;-79
2023/12/15 00:27:13;;;;;;;18.30;10.53;;;;;1.20;94933.00;;;;7399808;19;20607;-78
2023/12/15 00:29:41;;;;;;;20.10;10.63;;;;;1.30;94941.00;;;;7401360;19;20475;-78
2023/12/15 00:32:15;;;;;;;16.57;10.03;;;;;1.20;94935.00;;;;7399230;19;20132;-78
2023/12/15 00:34:49;;;;;;;18.43;10.17;;;;;1.20;94940.00;;;;7399369;19;20140;-79
2023/12/15 00:37:24;;;;;;;18.17;10.77;;;;;1.20;94945.00;;;;7399860;19;20144;-78
2023/12/15 00:39:52;;;;;;;19.80;10.37;;;;;1.20;94948.00;;;;7401463;19;20133;-79
2023/12/15 00:42:19;;;;;;;17.60;9.90;;;;;1.30;94946.00;;;;7399294;19;20481;-78
2023/12/15 00:44:54;;;;;;;16.13;9.60;;;;;1.30;94948.00;;;;7400216;19;20600;-78
2023/12/15 00:47:21;;;;;;;15.97;10.27;;;;;1.20;94950.00;;;;7398897;19;20490;-77
2023/12/15 00:49:49;;;;;;;15.77;9.10;;;;;1.10;94954.00;;;;7397904;19;20620;-78
2023/12/15 00:52:23;;;;;;;15.83;9.90;;;;;1.30;94962.00;;;;7397575;19;20156;-78
2023/12/15 00:54:57;;;;;;;15.57;9.63;;;;;1.50;94972.00;;;;7399971;19;20228;-78
2023/12/15 00:57:31;;;;;;;17.90;9.97;;;;;1.30;94962.00;;;;7400271;19;20161;-78
2023/12/15 01:00:06;;;;;;;19.93;10.73;;;;;1.30;94966.00;;;;7398092;19;20140;-78
2023/12/15 01:02:35;;;;;;;16.53;9.50;;;;;1.20;94976.00;;;;7398018;19;20120;-79
2023/12/15 01:05:09;;;;;;;17.77;9.43;;;;;1.20;94973.00;;;;7398730;19;20148;-79
2023/12/15 01:07:37;;;;;;;17.57;10.10;;;;;1.30;94980.00;;;;7398530;19;20587;-79
2023/12/15 01:10:16;;;;;;;17.13;9.13;;;;;1.50;94983.00;;;;7397390;19;20169;-80
2023/12/15 01:12:46;;;;;;;16.67;9.37;;;;;1.40;94993.00;;;;7396648;19;20144;-81
2023/12/15 01:15:21;;;;;;;16.63;10.10;;;;;1.20;94984.00;;;;7398204;19;20140;-80
2023/12/15 01:17:55;;;;;;;13.70;9.10;;;;;1.30;94997.00;;;;7398737;19;20789;-80
2023/12/15 01:20:29;;;;;;;17.60;9.83;;;;;1.30;94997.00;;;;7399402;19;20129;-76
2023/12/15 01:23:04;;;;;;;15.50;9.20;;;;;1.10;95003.00;;;;7397102;19;20144;-76
2023/12/15 01:25:38;;;;;;;14.60;8.60;;;;;1.00;95010.00;;;;7397788;19;20144;-75
2023/12/15 01:28:12;;;;;;;17.73;9.47;;;;;0.90;94999.00;;;;7397377;19;20148;-76
2023/12/15 01:30:40;;;;;;;15.87;8.77;;;;;1.00;95013.00;;;;7397048;19;20141;-75
2023/12/15 01:33:14;;;;;;;17.27;8.37;;;;;1.00;95017.00;;;;7399196;19;20148;-76
2023/12/15 01:35:42;;;;;;;12.57;7.80;;;;;0.90;95023.00;;;;7404913;19;20129;-77
2023/12/15 01:38:16;;;;;;;11.17;7.00;;;;;1.10;95016.00;;;;7405197;19;20141;-76
2023/12/15 01:40:50;;;;;;;13.77;7.47;;;;;1.20;95018.00;;;;7405784;19;20152;-76
2023/12/15 01:43:24;;;;;;;13.13;7.43;;;;;1.00;95025.00;;;;7404733;19;20144;-76
2023/12/15 01:45:58;;;;;;;11.67;6.73;;;;;1.10;95027.00;;;;7404222;19;20156;-75
2023/12/15 01:48:39;;;;;;;12.17;7.40;;;;;1.00;95030.00;;;;7405105;19;20137;-75
2023/12/15 01:51:14;;;;;;;13.07;6.87;;;;;1.20;95034.00;;;;7405957;19;20616;-76
2023/12/15 01:53:43;;;;;;;10.57;6.87;;;;;1.20;95027.00;;;;7401825;19;20504;-76
2023/12/15 01:56:18;;;;;;;10.57;6.93;;;;;1.10;95034.00;;;;7403886;19;20172;-76
2023/12/15 01:58:46;;;;;;;11.17;6.63;;;;;1.10;95040.00;;;;7403768;19;20145;-76
2023/12/15 02:01:20;;;;;;;10.50;5.87;;;;;1.20;95037.00;;;;7403542;19;20144;-76
2023/12/15 02:03:55;;;;;;;11.83;6.40;;;;;1.00;95037.00;;;;7403685;19;20727;-76
2023/12/15 02:06:22;;;;;;;11.17;6.00;;;;;1.00;95044.00;;;;7404044;19;20158;-76
2023/12/15 02:08:56;;;;;;;12.47;6.13;;;;;0.80;95035.00;;;;7404259;19;20137;-75
2023/12/15 02:11:30;;;;;;;13.07;5.73;;;;;0.90;95033.00;;;;7402498;19;20598;-75
2023/12/15 02:13:58;;;;;;;8.30;5.43;;;;;1.00;95047.00;;;;7401751;19;20177;-76
2023/12/15 02:16:36;;;;;;;11.37;6.07;;;;;1.00;95043.00;;;;7404904;19;20203;-76
2023/12/15 02:19:03;;;;;;;12.13;6.00;;;;;0.90;95048.00;;;;7403275;19;20493;-76
2023/12/15 02:21:37;;;;;;;9.03;6.20;;;;;1.00;95061.00;;;;7403048;19;20148;-76
2023/12/15 02:24:05;;;;;;;10.50;6.17;;;;;0.80;95063.00;;;;7403448;19;20139;-76
2023/12/15 02:26:39;;;;;;;14.63;7.43;;;;;0.90;95068.00;;;;7404155;19;20139;-76
2023/12/15 02:29:07;;;;;;;12.93;6.50;;;;;0.90;95068.00;;;;7402850;19;20144;-75
2023/12/15 02:31:41;;;;;;;11.67;6.17;;;;;0.90;95070.00;;;;7404206;19;20132;-76
2023/12/15 02:34:09;;;;;;;12.17;7.40;;;;;1.00;95067.00;;;;7402024;19;20157;-75
2023/12/15 02:36:43;;;;;;;13.07;7.30;;;;;0.80;95081.00;;;;7401850;19;20139;-76
2023/12/15 02:39:11;;;;;;;13.63;7.87;;;;;0.90;95078.00;;;;7402126;19;20144;-76
2023/12/15 02:41:45;;;;;;;13.57;8.17;;;;;0.90;95080.00;;;;7404185;19;20462;-76
2023/12/15 02:44:14;;;;;;;12.47;7.27;;;;;1.00;95076.00;;;;7401860;19;20133;-76
2023/12/15 02:46:49;;;;;;;13.90;8.30;;;;;1.20;95091.00;;;;7404179;19;20612;-75
2023/12/15 02:49:18;;;;;;;16.23;8.43;;;;;0.90;95086.00;;;;7400755;19;20189;-75
2023/12/15 02:51:59;;;;;;;14.83;9.00;;;;;1.00;95086.00;;;;7403768;19;20168;-76
2023/12/15 02:54:26;;;;;;;15.73;8.60;;;;;1.00;95096.00;;;;7400633;19;20166;-75
2023/12/15 02:57:00;;;;;;;18.50;8.40;;;;;1.10;95086.00;;;;7401649;19;20136;-75
2023/12/15 02:59:34;;;;;;;14.73;8.93;;;;;1.20;95091.00;;;;7402734;19;20156;-76
2023/12/15 03:02:08;;;;;;;15.00;8.40;;;;;1.20;95092.00;;;;7402008;19;20154;-76
2023/12/15 03:04:36;;;;;;;18.47;9.07;;;;;1.10;95099.00;;;;7399912;19;20141;-76
2023/12/15 03:07:12;;;;;;;16.17;8.20;;;;;1.00;95102.00;;;;7401183;19;20587;-75
2023/12/15 03:09:48;;;;;;;17.00;9.43;;;;;1.20;95101.00;;;;7400545;19;20148;-75
2023/12/15 03:12:23;;;;;;;18.10;8.97;;;;;1.00;95104.00;;;;7401148;19;20615;-75
2023/12/15 03:14:51;;;;;;;16.20;9.10;;;;;1.10;95108.00;;;;7401830;19;20144;-75
2023/12/15 03:17:25;;;;;;;17.00;9.20;;;;;1.20;95104.00;;;;7400767;19;20165;-76
2023/12/15 03:20:00;;;;;;;17.77;9.23;;;;;1.30;95113.00;;;;7401296;19;20144;-75
2023/12/15 03:22:38;;;;;;;20.73;10.07;;;;;1.30;95112.00;;;;7403235;19;20448;-75
2023/12/15 03:25:12;;;;;;;15.37;9.70;;;;;1.20;95115.00;;;;7401441;19;20468;-75
2023/12/15 03:27:46;;;;;;;16.93;9.00;;;;;1.10;95102.00;;;;7401705;19;20632;-75
2023/12/15 03:30:20;;;;;;;17.50;9.90;;;;;1.30;95117.00;;;;7400300;19;20141;-77
2023/12/15 03:32:54;;;;;;;15.27;9.40;;;;;1.40;95119.00;;;;7400520;19;20637;-75
2023/12/15 03:35:22;;;;;;;20.10;10.10;;;;;1.30;95112.00;;;;7399279;19;20137;-75
2023/12/15 03:37:56;;;;;;;18.37;9.47;;;;;1.20;95111.00;;;;7400020;19;20139;-77
2023/12/15 03:40:31;;;;;;;18.77;10.07;;;;;1.30;95118.00;;;;7402050;19;20148;-75
2023/12/15 03:43:07;;;;;;;19.80;10.07;;;;;1.40;95128.00;;;;7400434;19;20603;-74
2023/12/15 03:45:34;;;;;;;15.47;8.90;;;;;1.30;95127.00;;;;7398867;19;20125;-75
2023/12/15 03:48:08;;;;;;;14.37;9.33;;;;;1.20;95119.00;;;;7399254;19;20153;-76
2023/12/15 03:50:43;;;;;;;21.37;10.67;;;;;1.40;95129.00;;;;7399710;19;20141;-75
2023/12/15 03:53:17;;;;;;;17.03;9.80;;;;;1.40;95133.00;;;;7400979;19;20141;-74
2023/12/15 03:55:45;;;;;;;16.70;10.03;;;;;1.30;95133.00;;;;7399193;19;20153;-75
2023/12/15 03:58:19;;;;;;;21.70;9.80;;;;;1.30;95127.00;;;;7399632;19;20506;-75
2023/12/15 04:00:48;;;;;;;16.53;9.80;;;;;1.20;95146.00;;;;7398276;19;20176;-75
2023/12/15 04:03:23;;;;;;;19.40;10.00;;;;;1.40;95136.00;;;;7399045;19;20544;-76
2023/12/15 04:05:57;;;;;;;20.00;10.17;;;;;1.30;95143.00;;;;7400424;19;20133;-75
2023/12/15 04:08:25;;;;;;;18.63;9.73;;;;;1.20;95146.00;;;;7400146;19;20144;-75
2023/12/15 04:11:00;;;;;;;15.83;9.37;;;;;1.20;95157.00;;;;7399003;19;20148;-75
2023/12/15 04:13:36;;;;;;;18.20;9.80;;;;;1.30;95154.00;;;;7397509;19;20162;-75
2023/12/15 04:16:11;;;;;;;20.10;10.27;;;;;1.40;95154.00;;;;7398084;19;20184;-75
2023/12/15 04:18:39;;;;;;;19.07;9.80;;;;;1.30;95141.00;;;;7398516;19;20506;-75
2023/12/15 04:21:13;;;;;;;17.90;9.83;;;;;1.50;95147.00;;;;7399293;19;20211;-76
2023/12/15 04:23:46;;;;;;;17.33;10.10;;;;;1.50;95152.00;;;;7398221;19;20584;-75
2023/12/15 04:26:20;;;;;;;20.70;10.83;;;;;1.30;95152.00;;;;7398095;19;20152;-75
2023/12/15 04:28:55;;;;;;;18.73;10.17;;;;;1.40;95165.00;;;;7399245;19;20672;-75
2023/12/15 04:31:29;;;;;;;16.50;10.20;;;;;1.50;95180.00;;;;7399086;19;20136;-75
2023/12/15 04:33:56;;;;;;;19.27;11.00;;;;;1.40;95177.00;;;;7397155;19;20149;-75
2023/12/15 04:36:25;;;;;;;16.40;9.67;;;;;1.50;95179.00;;;;7398011;19;20507;-76
2023/12/15 04:38:59;;;;;;;18.13;10.50;;;;;1.50;95185.00;;;;7398444;19;20160;-75
2023/12/15 04:41:27;;;;;;;25.00;10.63;;;;;1.50;95183.00;;;;7397776;19;20152;-75
2023/12/15 04:44:01;;;;;;;19.27;10.33;;;;;1.50;95187.00;;;;7399645;19;20132;-76
2023/12/15 04:46:30;;;;;;;15.73;10.00;;;;;1.50;95183.00;;;;7399342;19;20138;-76
2023/12/15 04:49:11;;;;;;;23.60;11.07;;;;;1.50;95189.00;;;;7397527;19;20163;-75
2023/12/15 04:51:39;;;;;;;17.27;9.33;;;;;1.50;95194.00;;;;7397396;19;20156;-74
2023/12/15 04:54:15;;;;;;;16.87;10.07;;;;;1.80;95186.00;;;;7396566;19;20156;-76
2023/12/15 04:56:49;;;;;;;18.17;10.23;;;;;1.60;95202.00;;;;7398227;19;20132;-74
2023/12/15 04:59:25;;;;;;;16.87;10.33;;;;;1.60;95206.00;;;;7397181;19;20644;-76
2023/12/15 05:01:59;;;;;;;18.83;10.60;;;;;1.70;95208.00;;;;7398908;19;20200;-75
2023/12/15 05:04:27;;;;;;;26.20;11.17;;;;;1.70;95215.00;;;;7399019;19;20140;-76
2023/12/15 05:07:02;;;;;;;19.20;11.03;;;;;1.60;95213.00;;;;7395403;19;20125;-75
2023/12/15 05:09:36;;;;;;;21.53;10.90;;;;;1.90;95208.00;;;;7395882;19;20137;-76
2023/12/15 05:12:10;;;;;;;20.13;11.10;;;;;2.00;95221.00;;;;7397282;19;20124;-75
2023/12/15 05:14:38;;;;;;;22.53;11.90;;;;;1.90;95214.00;;;;7395207;19;20172;-75
2023/12/15 05:17:13;;;;;;;19.27;11.23;;;;;1.70;95225.00;;;;7396267;19;20152;-75
2023/12/15 05:19:48;;;;;;;22.00;12.70;;;;;2.00;95219.00;;;;7396501;19;20155;-75
2023/12/15 05:22:22;;;;;;;21.07;11.43;;;;;2.10;95225.00;;;;7396846;19;20622;-75
2023/12/15 05:24:51;;;;;;;25.53;12.40;;;;;2.10;95235.00;;;;7378695;19;20585;-75
2023/12/15 05:27:25;;;;;;;23.30;11.70;;;;;2.10;95237.00;;;;7377038;19;20529;-75
2023/12/15 05:30:01;;;;;;;22.00;11.93;;;;;2.00;95244.00;;;;7383510;19;20246;-75
2023/12/15 05:32:40;;;;;;;24.50;11.80;;;;;2.00;95256.00;;;;7383609;19;20156;-74
2023/12/15 05:35:09;;;;;;;22.30;12.33;;;;;2.00;95257.00;;;;7384517;19;20132;-75
2023/12/15 05:37:43;;;;;;;21.53;12.30;;;;;2.00;95268.00;;;;7382776;19;22034;-74
2023/12/15 05:40:12;;;;;;;23.07;12.50;;;;;2.00;95274.00;;;;7383061;19;20129;-76
2023/12/15 05:42:46;;;;;;;23.30;13.80;;;;;2.20;95293.00;;;;7383938;19;20129;-76
2023/12/15 05:45:14;;;;;;;26.07;14.03;;;;;2.30;95269.00;;;;7384243;19;20589;-75
2023/12/15 05:47:50;;;;;;;30.23;14.43;;;;;2.30;95271.00;;;;7381841;19;20169;-75
2023/12/15 05:50:31;;;;;;;26.80;13.80;;;;;2.20;95282.00;;;;7383367;19;20176;-76
2023/12/15 05:53:13;;;;;;;29.90;15.53;;;;;2.00;95282.00;;;;7382719;19;20652;-76
2023/12/15 05:55:48;;;;;;;33.33;15.00;;;;;2.10;95289.00;;;;7382390;19;20169;-76
2023/12/15 05:58:16;;;;;;;31.73;14.53;;;;;2.10;95293.00;;;;7382117;19;20133;-75
2023/12/15 06:00:50;;;;;;;28.70;14.30;;;;;2.20;95300.00;;;;7383938;19;20135;-75
2023/12/15 06:03:18;;;;;;;28.33;15.13;;;;;2.30;95301.00;;;;7383321;19;20171;-76
2023/12/15 06:05:54;;;;;;;29.27;14.57;;;;;2.30;95310.00;;;;7383793;19;20128;-76
2023/12/15 06:08:28;;;;;;;31.47;15.30;;;;;2.50;95309.00;;;;7381967;19;20145;-76
2023/12/15 06:11:03;;;;;;;25.87;13.53;;;;;2.20;95320.00;;;;7384095;19;20136;-77
2023/12/15 06:13:31;;;;;;;27.03;15.33;;;;;2.30;95325.00;;;;7378248;19;20180;-75
2023/12/15 06:16:07;;;;;;;24.67;14.83;;;;;2.10;95336.00;;;;7383494;19;20878;-76
2023/12/15 06:18:34;;;;;;;22.93;13.80;;;;;2.20;95339.00;;;;7381916;19;20484;-76
2023/12/15 06:21:09;;;;;;;26.07;14.10;;;;;2.40;95341.00;;;;7388194;19;20129;-75
2023/12/15 06:23:43;;;;;;;25.83;15.10;;;;;2.30;95330.00;;;;7388411;19;20137;-75
2023/12/15 06:26:35;;;;;;;23.77;13.80;;;;;2.20;95349.00;;;;7387924;19;20605;-75
2023/12/15 06:29:03;;;;;;;24.07;14.40;;;;;2.40;95354.00;;;;7388726;19;20624;-76
2023/12/15 06:31:37;;;;;;;28.67;14.53;;;;;2.40;95349.00;;;;7388751;19;20159;-75
2023/12/15 06:34:05;;;;;;;28.43;15.07;;;;;2.20;95350.00;;;;7388948;19;20129;-75
2023/12/15 06:36:41;;;;;;;24.27;15.07;;;;;2.30;95357.00;;;;7389304;19;20576;-75
2023/12/15 06:39:09;;;;;;;32.03;16.63;;;;;2.30;95355.00;;;;7387753;19;20135;-75
2023/12/15 06:41:43;;;;;;;28.33;15.97;;;;;2.20;95347.00;;;;7387569;19;20208;-75
2023/12/15 06:44:17;;;;;;;26.60;15.10;;;;;2.40;95348.00;;;;7388062;19;20216;-75
2023/12/15 06:46:51;;;;;;;25.67;13.30;;;;;2.20;95359.00;;;;7387736;19;20208;-75
2023/12/15 06:49:19;;;;;;;24.43;15.30;;;;;2.20;95362.00;;;;7388090;19;20157;-76
2023/12/15 06:52:02;;;;;;;25.87;14.57;;;;;2.40;95370.00;;;;7388910;19;20135;-76
2023/12/15 06:54:30;;;;;;;23.97;14.00;;;;;2.40;95375.00;;;;7389097;19;20140;-75
2023/12/15 06:57:08;;;;;;;31.33;15.33;;;;;2.70;95384.00;;;;7388321;19;20613;-76
2023/12/15 06:59:36;;;;;;;28.63;16.03;;;;;2.40;95386.00;;;;7388123;19;20235;-76
2023/12/15 07:02:10;;;;;;;32.23;15.60;;;;;2.30;95393.00;;;;7389444;19;20130;-75
2023/12/15 07:04:45;;;;;;;30.73;16.03;;;;;2.40;95390.00;;;;7386197;19;20139;-76
2023/12/15 07:07:19;;;;;;;33.07;16.13;;;;;2.40;95388.00;;;;7389904;19;20498;-75
2023/12/15 07:09:55;;;;;;;29.90;15.90;;;;;2.60;95402.00;;;;7388411;19;20155;-75
2023/12/15 07:12:29;;;;;;;28.60;16.43;;;;;2.60;95403.00;;;;7386075;19;20129;-75
2023/12/15 07:14:57;;;;;;;26.80;15.30;;;;;2.40;95393.00;;;;7388594;19;20940;-76
2023/12/15 07:17:31;;;;;;;26.03;14.53;;;;;2.40;95406.00;;;;7389687;19;20613;-75
2023/12/15 07:20:09;;;;;;;28.63;15.13;;;;;2.50;95404.00;;;;7389978;19;20144;-76
2023/12/15 07:22:38;;;;;;;25.90;14.37;;;;;2.40;95407.00;;;;7391065;19;20144;-77
2023/12/15 07:25:13;;;;;;;26.63;14.80;;;;;2.40;95406.00;;;;7389347;19;20228;-75
2023/12/15 07:27:47;;;;;;;22.93;12.73;;;;;2.30;95421.00;;;;7387521;19;20148;-74
2023/12/15 07:30:21;;;;;;;22.27;14.07;;;;;2.30;95414.00;;;;7387897;19;20145;-75
2023/12/15 07:32:56;;;;;;;26.80;14.33;;;;;2.60;95417.00;;;;7389850;19;20490;-74
2023/12/15 07:35:30;;;;;;;18.80;11.73;;;;;2.50;95417.00;;;;7389778;19;20479;-76
2023/12/15 07:38:07;;;;;;;18.97;12.57;;;;;2.60;95425.00;;;;7390892;19;20470;-76
2023/12/15 07:40:41;;;;;;;21.67;11.97;;;;;2.50;95430.00;;;;7388193;19;20178;-76
2023/12/15 07:43:15;;;;;;;20.60;13.10;;;;;2.60;95437.00;;;;7387387;19;20139;-74
2023/12/15 07:45:49;;;;;;;22.53;12.53;;;;;2.60;95439.00;;;;7386966;19;20852;-77
2023/12/15 07:48:16;;;;;;;18.50;10.97;;;;;2.40;95420.00;;;;7388106;19;20719;-78
2023/12/15 07:51:00;;;;;;;21.40;12.33;;;;;2.50;95436.00;;;;7388254;19;20155;-77
2023/12/15 07:53:33;;;;;;;16.47;10.67;;;;;2.70;95439.00;;;;7386345;19;20231;-80
2023/12/15 07:56:17;;;;;;;18.50;10.60;;;;;2.50;95442.00;;;;7386787;19;20152;-74
2023/12/15 07:58:55;;;;;;;18.87;10.50;;;;;2.60;95445.00;;;;7386858;19;20213;-74
2023/12/15 08:01:31;;;;;;;21.17;11.43;;;;;2.60;95454.00;;;;7385398;19;20144;-73
2023/12/15 08:03:59;;;;;;;19.50;10.70;;;;;2.70;95442.00;;;;7386183;19;20132;-74
2023/12/15 08:06:37;;;;;;;15.80;10.47;;;;;2.60;95451.00;;;;7386012;19;20156;-77
2023/12/15 08:09:12;;;;;;;15.57;10.10;;;;;2.50;95461.00;;;;7385680;19;20592;-75
2023/12/15 08:11:46;;;;;;;15.47;10.17;;;;;2.70;95465.00;;;;7385087;19;20136;-75
2023/12/15 08:14:14;;;;;;;17.17;10.67;;;;;2.70;95458.00;;;;7387357;19;20183;-74
2023/12/15 08:16:48;;;;;;;16.33;11.17;;;;;2.70;95463.00;;;;7382683;19;20169;-72
2023/12/15 08:19:22;;;;;;;15.03;9.23;;;;;2.90;95463.00;;;;7386851;19;20132;-76
2023/12/15 08:21:59;;;;;;;13.90;8.93;;;;;3.00;95468.00;;;;7386351;19;20614;-78
2023/12/15 08:24:27;;;;;;;13.70;8.70;;;;;2.80;95479.00;;;;7384836;19;20144;-79
2023/12/15 08:27:04;;;;;;;14.30;8.67;;;;;3.00;95479.00;;;;7384616;19;20148;-80
2023/12/15 08:29:38;;;;;;;13.80;9.60;;;;;3.00;95485.00;;;;7386304;19;20204;-76
2023/12/15 08:32:06;;;;;;;15.13;9.20;;;;;3.10;95492.00;;;;7385754;19;20181;-77
2023/12/15 08:34:42;;;;;;;13.93;8.67;;;;;2.90;95497.00;;;;7384462;19;20615;-78
2023/12/15 08:37:10;;;;;;;13.90;7.43;;;;;3.10;95503.00;;;;7385177;19;20145;-78
2023/12/15 08:39:44;;;;;;;12.43;7.30;;;;;3.10;95510.00;;;;7384847;19;20124;-77
2023/12/15 08:42:18;;;;;;;10.23;6.73;;;;;3.10;95517.00;;;;7383560;19;20133;-77
2023/12/15 08:44:46;;;;;;;10.83;6.80;;;;;3.00;95507.00;;;;7384822;19;20612;-78
2023/12/15 08:47:22;;;;;;;9.27;6.60;;;;;3.00;95510.00;;;;7384368;19;20132;-76
2023/12/15 08:49:56;;;;;;;9.53;6.67;;;;;3.10;95508.00;;;;7385860;19;20148;-76
2023/12/15 08:52:30;;;;;;;8.67;6.40;;;;;3.20;95511.00;;;;7384950;19;20144;-75
2023/12/15 08:55:04;;;;;;;9.23;5.83;;;;;3.00;95514.00;;;;7385745;19;20129;-76
2023/12/15 08:57:32;;;;;;;10.40;5.63;;;;;2.90;95509.00;;;;7383428;19;20152;-76
2023/12/15 09:00:00;;;;;;;8.53;5.90;;;;;3.10;95519.00;;;;7386475;19;20226;-76
2023/12/15 09:02:38;;;;;;;9.47;5.77;;;;;3.20;95525.00;;;;7385137;19;20625;-77
2023/12/15 09:05:13;;;;;;;9.87;5.63;;;;;3.30;95525.00;;;;7384183;19;20145;-77
2023/12/15 09:08:07;;;;;;;9.93;6.00;;;;;3.20;95523.00;;;;7384233;19;20141;-76
2023/12/15 09:10:43;;;;;;;8.10;5.30;;;;;3.60;95519.00;;;;7383174;19;20148;-78
2023/12/15 09:13:12;;;;;;;9.77;6.50;;;;;3.60;95521.00;;;;7384662;19;20197;-76
2023/12/15 09:15:46;;;;;;;11.70;6.07;;;;;3.40;95531.00;;;;7383724;19;20140;-78
2023/12/15 09:18:20;;;;;;;7.30;5.47;;;;;3.00;95537.00;;;;7384786;19;20173;-78
2023/12/15 09:20:54;;;;;;;13.50;5.73;;;;;3.30;95526.00;;;;7384392;19;20128;-77
2023/12/15 09:23:28;;;;;;;7.37;5.10;;;;;3.30;95545.00;;;;7384065;19;20149;-81
2023/12/15 09:26:03;;;;;;;8.97;5.33;;;;;2.90;95546.00;;;;7382875;19;20600;-75
2023/12/15 09:28:31;;;;;;;8.90;4.97;;;;;3.40;95551.00;;;;7384454;19;20148;-77
2023/12/15 09:31:05;;;;;;;9.63;5.30;;;;;3.00;95563.00;;;;7385061;19;20128;-78
2023/12/15 09:33:39;;;;;;;8.47;5.50;;;;;3.10;95556.00;;;;7386374;19;20152;-80
2023/12/15 09:36:16;;;;;;;13.30;5.37;;;;;2.70;95554.00;;;;7386657;19;20509;-80
2023/12/15 09:38:47;;;;;;;7.07;5.20;;;;;3.00;95560.00;;;;7389147;19;20163;-78
2023/12/15 09:41:22;;;;;;;10.20;5.73;;;;;3.10;95562.00;;;;7386856;19;20149;-77
2023/12/15 09:43:50;;;;;;;10.87;5.43;;;;;3.10;95553.00;;;;7387520;19;20181;-81
2023/12/15 09:46:25;;;;;;;8.53;5.50;;;;;3.00;95560.00;;;;7386459;19;20173;-78
2023/12/15 09:48:53;;;;;;;10.13;5.33;;;;;3.00;95563.00;;;;7386818;19;20129;-79
2023/12/15 09:51:39;;;;;;;9.47;5.40;;;;;3.10;95563.00;;;;7384627;19;20149;-79
2023/12/15 09:54:07;;;;;;;7.23;5.00;;;;;3.30;95556.00;;;;7387471;19;20637;-80
2023/12/15 09:56:42;;;;;;;10.40;6.20;;;;;3.60;95567.00;;;;7391168;19;20212;-79
2023/12/15 09:59:16;;;;;;;8.53;4.87;;;;;3.50;95569.00;;;;7391035;19;20145;-75
2023/12/15 10:01:50;;;;;;;6.73;5.13;;;;;3.30;95569.00;;;;7390513;19;20136;-76
2023/12/15 10:04:24;;;;;;;7.23;5.27;;;;;3.60;95571.00;;;;7390816;19;20219;-77
2023/12/15 10:06:58;;;;;;;13.67;5.50;;;;;3.90;95563.00;;;;7390598;19;20531;-81
2023/12/15 10:09:36;;;;;;;6.50;4.90;;;;;4.20;95574.00;;;;7390228;19;20601;-78
2023/12/15 10:12:11;;;;;;;7.30;5.37;;;;;4.60;95566.00;;;;7389900;19;20145;-81
2023/12/15 10:14:46;;;;;;;9.30;5.13;;;;;4.80;95573.00;;;;7390071;19;20132;-81
2023/12/15 10:17:20;;;;;;;8.33;5.17;;;;;4.80;95576.00;;;;7388652;19;20477;-79
2023/12/15 10:19:48;;;;;;;6.83;4.30;;;;;4.90;95582.00;;;;7390572;19;20600;-79
2023/12/15 10:22:22;;;;;;;7.13;4.40;;;;;5.00;95580.00;;;;7389498;19;20627;-79
2023/12/15 10:24:52;;;;;;;7.57;3.80;;;;;5.20;95587.00;;;;7386690;19;20586;-77
2023/12/15 10:27:27;;;;;;;5.90;3.67;;;;;6.10;95582.00;;;;7391171;19;20591;-80
2023/12/15 10:29:55;;;;;;;4.53;3.17;;;;;6.20;95596.00;;;;7390495;19;20604;-79
2023/12/15 10:32:29;;;;;;;5.67;3.07;;;;;5.90;95593.00;;;;7389189;19;20132;-77
2023/12/15 10:35:00;;;;;;;5.03;3.30;;;;;4.90;95596.00;;;;7391251;19;20724;-78
2023/12/15 10:37:34;;;;;;;5.27;3.30;;;;;5.20;95600.00;;;;7389817;19;20161;-78
2023/12/15 10:40:04;;;;;;;3.93;2.30;;;;;4.90;95596.00;;;;7388860;19;20166;-77
2023/12/15 10:42:39;;;;;;;2.73;2.40;;;;;5.20;95592.00;;;;7390406;19;20136;-80
2023/12/15 10:45:08;;;;;;;3.50;2.73;;;;;5.30;95587.00;;;;7389277;19;20625;-79
2023/12/15 10:47:44;;;;;;;6.17;2.43;;;;;5.10;95585.00;;;;7391039;19;20132;-80
2023/12/15 10:50:12;;;;;;;2.63;2.00;;;;;4.40;95587.00;;;;7388689;19;20626;-80
2023/12/15 10:52:49;;;;;;;3.40;2.03;;;;;4.30;95586.00;;;;7390323;19;20144;-79
2023/12/15 10:55:20;;;;;;;2.20;1.67;;;;;4.80;95583.00;;;;7389082;19;20182;-79
2023/12/15 10:57:58;;;;;;;2.07;1.47;;;;;4.70;95573.00;;;;7392267;19;20530;-79
2023/12/15 11:00:31;;;;;;;2.33;1.40;;;;;4.70;95573.00;;;;7391051;19;20181;-79
2023/12/15 11:03:10;;;;;;;2.40;1.57;;;;;4.60;95578.00;;;;7389598;19;20521;-77
2023/12/15 11:05:41;;;;;;;2.33;1.40;;;;;5.10;95588.00;;;;7387663;19;20508;-79
2023/12/15 11:08:18;;;;;;;1.63;1.07;;;;;4.50;95593.00;;;;7389976;19;20151;-79
2023/12/15 11:10:52;;;;;;;1.43;1.10;;;;;4.40;95573.00;;;;7388070;19;20145;-79
2023/12/15 11:13:48;;;;;;;1.80;1.23;;;;;5.70;95582.00;;;;7388931;19;20192;-77
2023/12/15 11:16:27;;;;;;;1.60;1.50;;;;;5.90;95592.00;;;;7389508;19;20143;-80
2023/12/15 11:18:56;;;;;;;2.93;1.20;;;;;5.20;95587.00;;;;7391205;19;20453;-80
2023/12/15 11:21:31;;;;;;;1.23;1.13;;;;;5.80;95586.00;;;;7389041;19;20508;-78
2023/12/15 11:24:07;;;;;;;1.60;1.30;;;;;5.40;95603.00;;;;7389682;19;20132;-79
2023/12/15 11:26:46;;;;;;;2.20;1.40;;;;;5.30;95599.00;;;;7390727;19;20179;-78
2023/12/15 11:29:15;;;;;;;1.73;1.27;;;;;5.20;95604.00;;;;7388807;19;20759;-82
2023/12/15 11:31:53;;;;;;;3.67;1.87;;;;;6.00;95599.00;;;;7386105;19;20652;-79
2023/12/15 11:34:40;;;;;;;1.40;1.00;;;;;6.50;95596.00;;;;7388513;19;20161;-79
2023/12/15 11:37:09;;;;;;;1.60;1.20;;;;;7.20;95582.00;;;;7389414;19;20531;-80
2023/12/15 11:39:46;;;;;;;1.67;1.33;;;;;7.60;95584.00;;;;7389012;19;20144;-81
2023/12/15 11:42:15;;;;;;;2.63;1.23;;;;;8.40;95591.00;;;;7389210;19;20129;-79
2023/12/15 11:44:50;;;;;;;1.73;1.00;;;;;7.60;95585.00;;;;7389683;19;20132;-79
2023/12/15 11:47:19;;;;;;;1.20;1.10;;;;;6.90;95600.00;;;;7387476;19;21216;-81
2023/12/15 11:49:56;;;;;;;1.17;1.00;;;;;7.20;95596.00;;;;7388190;19;20212;-82
2023/12/15 11:52:30;;;;;;;1.25;0.90;;;;;7.70;95608.00;;;;7390558;19;20166;-78
2023/12/15 11:55:08;;;;;;;4.00;0.90;;;;;8.20;95605.00;;;;7388683;19;20169;-78
2023/12/15 11:57:36;;;;;;;1.67;0.90;;;;;6.90;95613.00;;;;7388649;19;20144;-79
2023/12/15 12:00:15;;;;;;;1.08;0.80;;;;;6.20;95625.00;;;;7385826;19;20850;-77
2023/12/15 12:02:55;;;;;;;1.10;0.90;;;;;6.50;95626.00;;;;7387865;19;20175;-77
2023/12/15 12:05:30;;;;;;;2.57;0.90;;;;;5.30;95626.00;;;;7387702;19;20462;-77
2023/12/15 12:08:00;;;;;;;1.43;0.90;;;;;5.70;95632.00;;;;7388604;19;20165;-76
2023/12/15 12:10:39;;;;;;;1.03;0.83;;;;;6.00;95619.00;;;;7389767;19;20154;-77
2023/12/15 12:13:09;;;;;;;1.43;1.13;;;;;6.00;95619.00;;;;7387523;19;20183;-77
2023/12/15 12:15:54;;;;;;;1.57;0.90;;;;;5.90;95619.00;;;;7389534;19;20133;-76
2023/12/15 12:18:24;;;;;;;1.67;1.00;;;;;5.80;95623.00;;;;7386359;19;20616;-77
2023/12/15 12:21:05;;;;;;;1.17;0.80;;;;;5.90;95626.00;;;;7387494;19;20152;-77
2023/12/15 12:23:39;;;;;;;1.33;1.00;;;;;5.60;95629.00;;;;7386876;19;20215;-76
2023/12/15 12:26:17;;;;;;;1.00;0.90;;;;;5.80;95629.00;;;;7388025;19;20628;-78
2023/12/15 12:28:50;;;;;;;2.40;0.80;;;;;5.50;95629.00;;;;7387859;19;20228;-77
2023/12/15 12:31:29;;;;;;;0.87;0.87;;;;;5.10;95631.00;;;;7386475;19;20152;-77
2023/12/15 12:33:57;;;;;;;1.10;1.00;;;;;5.00;95628.00;;;;7387799;19;20158;-76
2023/12/15 12:36:35;;;;;;;1.07;0.97;;;;;5.30;95627.00;;;;7388531;19;20151;-76
2023/12/15 12:39:09;;;;;;;1.40;1.00;;;;;5.00;95622.00;;;;7383013;19;20239;-76
2023/12/15 12:41:43;;;;;;;1.40;1.10;;;;;4.90;95620.00;;;;7384564;19;22749;-78
2023/12/15 12:44:11;;;;;;;1.33;1.10;;;;;5.50;95616.00;;;;7385173;19;20152;-76
2023/12/15 12:46:51;;;;;;;2.73;1.17;;;;;4.90;95616.00;;;;7386034;19;20159;-77